Time;durP1;ratioP1;P1;durP2;ratioP2;P2;SDS_P1;SDS_P2;PMS_P1;PMS_P2;Temp;Humidity;BMP_temperature;BMP_pressure;BME280_temperature;BME280_humidity;BME280_pressure;Samples;Min_cycle;Max_cycle;Signal;HPM_P1;HPM_P2
2021/01/27 00:00:13;;;;;;;20.37;11.12;;;5.80;99.90;;;;;;1919103;73;21107;-80
2021/01/27 00:02:41;;;;;;;21.90;10.98;;;5.80;99.90;;;;;;1916439;73;21065;-79
2021/01/27 00:05:12;;;;;;;17.17;11.70;;;5.50;99.90;;;;;;1935602;73;21139;-79
2021/01/27 00:07:41;;;;;;;17.05;10.72;;;5.60;99.90;;;;;;1915569;74;21149;-80
2021/01/27 00:10:09;;;;;;;22.90;11.85;;;5.70;99.90;;;;;;1911072;73;21204;-79
2021/01/27 00:12:37;;;;;;;21.77;11.30;;;5.60;99.90;;;;;;1953089;71;21186;-81
2021/01/27 00:15:09;;;;;;;19.52;11.15;;;5.70;99.90;;;;;;1951963;71;21154;-82
2021/01/27 00:17:37;;;;;;;20.97;10.75;;;5.90;99.90;;;;;;1984871;71;21777;-79
2021/01/27 00:20:07;;;;;;;17.73;11.57;;;5.90;99.90;;;;;;1980336;71;21204;-81
2021/01/27 00:22:34;;;;;;;19.73;11.80;;;5.90;99.90;;;;;;1974275;72;21167;-80
2021/01/27 00:25:03;;;;;;;22.30;11.93;;;6.00;99.90;;;;;;1982113;71;21106;-78
2021/01/27 00:27:30;;;;;;;19.25;12.58;;;5.90;99.90;;;;;;1980776;72;21158;-77
2021/01/27 00:29:59;;;;;;;24.45;12.88;;;5.80;99.90;;;;;;1978585;72;21085;-76
2021/01/27 00:32:28;;;;;;;21.93;12.35;;;5.50;99.90;;;;;;1978797;71;21520;-80
2021/01/27 00:34:56;;;;;;;19.70;12.05;;;5.20;99.90;;;;;;1981555;71;21419;-79
2021/01/27 00:37:23;;;;;;;23.83;12.63;;;5.40;99.90;;;;;;1981511;71;21143;-79
2021/01/27 00:39:51;;;;;;;21.75;13.08;;;5.40;99.90;;;;;;1978400;71;21091;-81
2021/01/27 00:42:18;;;;;;;22.30;13.80;;;5.20;99.90;;;;;;1983268;71;21071;-81
2021/01/27 00:44:46;;;;;;;24.90;13.35;;;5.20;99.90;;;;;;1984281;71;21113;-80
2021/01/27 00:47:13;;;;;;;21.17;13.93;;;5.20;99.90;;;;;;1978834;71;22382;-78
2021/01/27 00:49:41;;;;;;;25.68;14.13;;;5.30;99.90;;;;;;1978829;72;21065;-79
2021/01/27 00:52:08;;;;;;;25.82;13.65;;;5.20;99.90;;;;;;1977154;72;21101;-78
2021/01/27 00:54:36;;;;;;;24.57;14.33;;;5.10;99.90;;;;;;1980566;71;21078;-81
2021/01/27 00:57:04;;;;;;;20.27;14.23;;;5.20;99.90;;;;;;1980767;72;21081;-78
2021/01/27 00:59:32;;;;;;;22.07;14.55;;;5.30;99.90;;;;;;1983215;71;21599;-79
2021/01/27 01:01:59;;;;;;;21.00;14.45;;;5.30;99.90;;;;;;1987080;71;21527;-77
2021/01/27 01:04:27;;;;;;;23.15;14.73;;;5.30;99.90;;;;;;1979657;72;21204;-78
2021/01/27 01:06:55;;;;;;;24.98;14.87;;;5.20;99.90;;;;;;1978696;71;21085;-78
2021/01/27 01:09:22;;;;;;;22.80;14.83;;;5.00;99.90;;;;;;1985110;72;21093;-79
2021/01/27 01:11:50;;;;;;;25.02;16.37;;;5.20;99.90;;;;;;1980117;72;21527;-79
2021/01/27 01:14:18;;;;;;;27.30;15.72;;;5.40;99.90;;;;;;1975188;71;21132;-79
2021/01/27 01:16:45;;;;;;;28.80;17.12;;;5.40;99.90;;;;;;1978092;71;21441;-78
2021/01/27 01:19:13;;;;;;;25.15;17.23;;;5.40;99.90;;;;;;1986180;71;21102;-78
2021/01/27 01:21:40;;;;;;;29.10;17.80;;;5.40;99.90;;;;;;1986554;71;21086;-81
2021/01/27 01:24:08;;;;;;;28.50;16.70;;;5.20;99.90;;;;;;1981727;72;21118;-78
2021/01/27 01:26:35;;;;;;;27.05;17.45;;;5.30;99.90;;;;;;1985022;71;21591;-80
2021/01/27 01:29:03;;;;;;;29.90;17.50;;;5.30;99.90;;;;;;1982230;71;21075;-80
2021/01/27 01:31:31;;;;;;;28.40;17.57;;;5.10;99.90;;;;;;1978410;71;21725;-81
2021/01/27 01:33:58;;;;;;;27.10;17.30;;;5.20;99.90;;;;;;1985324;72;21164;-80
2021/01/27 01:36:26;;;;;;;27.93;17.85;;;5.20;99.90;;;;;;1979894;72;21066;-80
2021/01/27 01:38:53;;;;;;;26.37;17.70;;;5.10;99.90;;;;;;1977820;71;21090;-80
2021/01/27 01:41:21;;;;;;;28.15;18.30;;;5.00;99.90;;;;;;1980216;71;21689;-80
2021/01/27 01:43:50;;;;;;;28.80;18.37;;;5.10;99.90;;;;;;1982424;72;21167;-79
2021/01/27 01:46:20;;;;;;;28.45;18.20;;;5.10;99.90;;;;;;1979686;71;21572;-80
2021/01/27 01:48:57;;;;;;;29.55;19.12;;;5.10;99.90;;;;;;1978468;71;21105;-80
2021/01/27 01:51:37;;;;;;;28.98;19.15;;;5.10;99.90;;;;;;1979627;71;21073;-81
2021/01/27 01:54:17;;;;;;;33.53;20.70;;;5.20;99.90;;;;;;1978582;72;21582;-81
2021/01/27 01:56:53;;;;;;;30.82;20.77;;;4.80;99.90;;;;;;1947003;72;21078;-79
2021/01/27 01:59:21;;;;;;;27.90;19.95;;;4.90;99.90;;;;;;1977530;71;21503;-80
2021/01/27 02:01:51;;;;;;;33.48;21.40;;;4.70;99.90;;;;;;1985388;72;21053;-80
2021/01/27 02:04:19;;;;;;;31.77;22.98;;;4.80;99.90;;;;;;1985443;71;21167;-81
2021/01/27 02:06:47;;;;;;;31.35;21.93;;;4.90;99.90;;;;;;1982439;72;21609;-80
2021/01/27 02:09:14;;;;;;;41.85;24.20;;;4.90;99.90;;;;;;1980962;72;21088;-80
2021/01/27 02:11:45;;;;;;;30.23;21.05;;;4.80;99.90;;;;;;1976073;72;21153;-79
2021/01/27 02:14:31;;;;;;;36.45;22.62;;;4.90;99.90;;;;;;1981182;71;21182;-79
2021/01/27 02:17:13;;;;;;;34.67;22.58;;;4.90;99.90;;;;;;1979845;71;21123;-79
2021/01/27 02:20:03;;;;;;;34.55;23.18;;;4.90;99.90;;;;;;1978182;71;21081;-79
2021/01/27 02:22:40;;;;;;;32.20;23.20;;;5.00;99.90;;;;;;1980008;71;21191;-78
2021/01/27 02:25:36;;;;;;;34.18;23.90;;;4.90;99.90;;;;;;1977005;71;21097;-80
2021/01/27 02:28:07;;;;;;;35.40;24.10;;;5.00;99.90;;;;;;1977081;71;21073;-80
2021/01/27 02:30:58;;;;;;;39.38;24.85;;;4.90;99.90;;;;;;1979300;71;21147;-79
2021/01/27 02:33:41;;;;;;;34.40;24.13;;;4.80;99.90;;;;;;1976730;71;21519;-80
2021/01/27 02:36:12;;;;;;;38.90;24.55;;;4.70;99.90;;;;;;1979501;71;21741;-78
2021/01/27 02:38:45;;;;;;;35.08;25.23;;;4.90;99.90;;;;;;1975780;72;21121;-78
2021/01/27 02:41:22;;;;;;;40.55;25.95;;;4.90;99.90;;;;;;1972619;72;21529;-80
2021/01/27 02:43:52;;;;;;;40.40;26.50;;;4.90;99.90;;;;;;1973721;72;21034;-80
2021/01/27 02:46:23;;;;;;;36.60;24.92;;;4.80;99.90;;;;;;1977131;71;21159;-77
2021/01/27 02:49:22;;;;;;;37.23;27.50;;;4.70;99.90;;;;;;1974281;71;21585;-80
2021/01/27 02:51:53;;;;;;;41.25;26.07;;;4.70;99.90;;;;;;1980168;71;21142;-80
2021/01/27 02:54:29;;;;;;;46.68;26.15;;;4.80;99.90;;;;;;1982739;72;21061;-79
2021/01/27 02:57:09;;;;;;;45.33;26.87;;;4.70;99.90;;;;;;1982411;72;21580;-78
2021/01/27 02:59:39;;;;;;;34.90;26.27;;;4.50;99.90;;;;;;1983795;71;21190;-80
2021/01/27 03:02:13;;;;;;;37.15;26.70;;;4.70;99.90;;;;;;1985210;72;21137;-82
2021/01/27 03:04:43;;;;;;;33.17;24.87;;;4.90;99.90;;;;;;1982973;72;21097;-81
2021/01/27 03:07:12;;;;;;;36.77;26.97;;;5.00;99.90;;;;;;1982157;71;21127;-79
2021/01/27 03:09:45;;;;;;;44.10;28.02;;;5.00;99.90;;;;;;1983898;72;21147;-80
2021/01/27 03:12:13;;;;;;;40.52;26.77;;;5.20;99.90;;;;;;1974577;72;21098;-78
2021/01/27 03:14:41;;;;;;;39.88;26.80;;;5.30;99.90;;;;;;1984589;72;21128;-80
2021/01/27 03:17:15;;;;;;;37.75;26.82;;;5.20;99.90;;;;;;1981359;71;21433;-80
2021/01/27 03:20:06;;;;;;;42.23;27.40;;;5.10;99.90;;;;;;1983672;71;21098;-78
2021/01/27 03:22:48;;;;;;;40.83;27.87;;;5.00;99.90;;;;;;1978814;71;21069;-79
2021/01/27 03:25:21;;;;;;;47.30;28.67;;;4.70;99.90;;;;;;1985028;71;21120;-80
2021/01/27 03:27:55;;;;;;;40.48;29.20;;;4.60;99.90;;;;;;1983114;71;21109;-78
2021/01/27 03:30:23;;;;;;;49.60;29.72;;;4.90;99.90;;;;;;1975573;71;21003;-80
2021/01/27 03:32:59;;;;;;;47.03;30.48;;;4.70;99.90;;;;;;1979829;71;21057;-80
2021/01/27 03:35:36;;;;;;;44.63;29.48;;;4.70;99.90;;;;;;1981930;71;21119;-80
2021/01/27 03:38:18;;;;;;;49.95;29.32;;;4.70;99.90;;;;;;1983547;71;21026;-81
2021/01/27 03:40:46;;;;;;;;;;;4.90;99.90;;;;;;1985197;71;22250;-82
2021/01/27 03:43:16;;;;;;;40.30;29.87;;;5.00;99.90;;;;;;1977640;72;20480;-81
2021/01/27 03:45:49;;;;;;;42.55;29.35;;;4.90;99.90;;;;;;1980050;71;21105;-79
2021/01/27 03:48:31;;;;;;;45.95;30.43;;;4.90;99.90;;;;;;1982940;72;21175;-80
2021/01/27 03:51:00;;;;;;;38.80;29.05;;;4.90;99.90;;;;;;1979067;71;21545;-80
2021/01/27 03:53:30;;;;;;;42.05;30.05;;;4.80;99.90;;;;;;1976186;72;21129;-81
2021/01/27 03:56:03;;;;;;;41.20;29.18;;;4.90;99.90;;;;;;1984375;71;21129;-81
2021/01/27 03:58:34;;;;;;;49.93;31.50;;;5.20;99.90;;;;;;1984012;71;21081;-80
2021/01/27 04:01:16;;;;;;;49.60;30.75;;;5.30;99.90;;;;;;1978148;71;21002;-81
2021/01/27 04:03:45;;;;;;;42.03;29.80;;;5.20;99.90;;;;;;1981981;72;21183;-81
2021/01/27 04:06:13;;;;;;;42.75;29.57;;;5.00;99.90;;;;;;1981332;71;21254;-81
2021/01/27 04:08:41;;;;;;;48.02;31.20;;;5.00;99.90;;;;;;1980318;71;21097;-80
2021/01/27 04:11:09;;;;;;;47.00;31.50;;;5.00;99.90;;;;;;1984923;71;21165;-81
2021/01/27 04:13:37;;;;;;;50.23;31.57;;;5.10;99.90;;;;;;1981664;72;21094;-80
2021/01/27 04:16:05;;;;;;;46.75;31.75;;;5.10;99.90;;;;;;1981582;71;21584;-80
2021/01/27 04:18:33;;;;;;;39.75;30.40;;;4.90;99.90;;;;;;1982879;71;21066;-81
2021/01/27 04:21:01;;;;;;;43.45;30.68;;;5.00;99.90;;;;;;1978139;71;21114;-81
2021/01/27 04:23:28;;;;;;;45.75;30.88;;;5.10;99.90;;;;;;1984086;71;21764;-81
2021/01/27 04:25:57;;;;;;;45.25;30.17;;;4.90;99.90;;;;;;1982145;71;21194;-81
2021/01/27 04:28:24;;;;;;;45.83;30.48;;;5.00;99.90;;;;;;1979940;71;21086;-81
2021/01/27 04:30:52;;;;;;;45.15;30.72;;;5.10;99.90;;;;;;1980314;71;21074;-79
2021/01/27 04:33:19;;;;;;;45.73;30.65;;;4.90;99.90;;;;;;1979820;72;21135;-80
2021/01/27 04:35:47;;;;;;;44.53;29.57;;;4.80;99.90;;;;;;1978696;72;21599;-80
2021/01/27 04:38:14;;;;;;;45.00;30.15;;;4.80;99.90;;;;;;1978350;71;21422;-79
2021/01/27 04:40:45;;;;;;;42.50;29.23;;;4.90;99.90;;;;;;1977945;71;21120;-79
2021/01/27 04:43:18;;;;;;;42.40;29.95;;;4.90;99.90;;;;;;1983059;71;21071;-79
2021/01/27 04:45:49;;;;;;;48.92;30.40;;;4.90;99.90;;;;;;1978773;71;21959;-80
2021/01/27 04:48:22;;;;;;;46.55;30.25;;;4.80;99.90;;;;;;1979773;71;21082;-78
2021/01/27 04:50:55;;;;;;;44.13;29.65;;;4.90;99.90;;;;;;1974866;72;21143;-80
2021/01/27 04:53:37;;;;;;;43.10;28.73;;;4.90;99.90;;;;;;1977617;72;21081;-80
2021/01/27 04:56:11;;;;;;;42.50;29.48;;;5.00;99.90;;;;;;1912968;72;21170;-80
2021/01/27 04:58:53;;;;;;;44.15;28.38;;;4.90;99.90;;;;;;1975433;72;21163;-80
2021/01/27 05:01:38;;;;;;;;;;;4.80;99.90;;;;;;1976763;71;21089;-80
2021/01/27 05:04:29;;;;;;;44.58;29.23;;;4.70;99.90;;;;;;1978948;71;20159;-80
2021/01/27 05:07:03;;;;;;;43.58;29.80;;;4.70;99.90;;;;;;1981538;71;21139;-81
2021/01/27 05:09:33;;;;;;;43.52;29.15;;;4.70;99.90;;;;;;1983094;72;21039;-79
2021/01/27 05:12:03;;;;;;;43.83;28.98;;;4.70;99.90;;;;;;1971626;72;21757;-80
2021/01/27 05:14:31;;;;;;;44.65;28.85;;;4.80;99.90;;;;;;1980263;72;21626;-79
2021/01/27 05:17:02;;;;;;;45.05;29.15;;;4.90;99.90;;;;;;1979389;72;21343;-81
2021/01/27 05:19:29;;;;;;;50.28;29.02;;;5.00;99.90;;;;;;1984781;71;21071;-81
2021/01/27 05:21:58;;;;;;;44.27;29.23;;;4.80;99.90;;;;;;1980494;72;21656;-79
2021/01/27 05:24:26;;;;;;;42.60;28.30;;;5.10;99.90;;;;;;1976205;71;21094;-80
2021/01/27 05:27:14;;;;;;;46.20;28.10;;;5.10;99.90;;;;;;1979750;72;21606;-80
2021/01/27 05:30:06;;;;;;;41.98;28.25;;;5.20;99.90;;;;;;1983063;71;21184;-81
2021/01/27 05:32:54;;;;;;;41.58;28.47;;;5.30;99.90;;;;;;1985868;71;21555;-80
2021/01/27 05:35:27;;;;;;;41.90;28.60;;;5.40;99.90;;;;;;1974842;71;21117;-80
2021/01/27 05:37:55;;;;;;;40.50;27.32;;;5.20;99.90;;;;;;1976101;72;21018;-79
2021/01/27 05:40:32;;;;;;;39.83;26.87;;;5.10;99.90;;;;;;1983321;71;21047;-80
2021/01/27 05:43:01;;;;;;;43.25;27.45;;;5.10;99.90;;;;;;1981926;71;21085;-78
2021/01/27 05:45:38;;;;;;;39.63;26.75;;;4.80;99.90;;;;;;1976245;71;21183;-79
2021/01/27 05:48:32;;;;;;;44.83;27.40;;;4.80;99.90;;;;;;1982377;71;21190;-78
2021/01/27 05:51:08;;;;;;;41.58;27.52;;;4.70;99.90;;;;;;1982352;72;21125;-78
2021/01/27 05:53:36;;;;;;;36.28;26.00;;;4.70;99.90;;;;;;1981072;71;21102;-76
2021/01/27 05:56:18;;;;;;;35.95;25.77;;;4.70;99.90;;;;;;1899766;70;21148;-75
2021/01/27 05:59:01;;;;;;;37.65;26.30;;;4.70;99.90;;;;;;1795095;77;21222;-75
2021/01/27 06:01:37;;;;;;;37.30;26.45;;;4.80;99.90;;;;;;1795035;77;21450;-75
2021/01/27 06:04:14;;;;;;;35.63;25.80;;;5.00;99.90;;;;;;1802673;77;21168;-76
2021/01/27 06:06:49;;;;;;;33.20;23.42;;;5.00;99.90;;;;;;1771789;79;22191;-76
2021/01/27 06:09:47;;;;;;;35.55;24.40;;;4.90;99.90;;;;;;1771120;79;21123;-76
2021/01/27 06:12:24;;;;;;;34.67;24.05;;;4.80;99.90;;;;;;1774677;79;21108;-77
2021/01/27 06:15:06;;;;;;;29.25;22.50;;;4.70;99.90;;;;;;1773505;79;21113;-76
2021/01/27 06:17:46;;;;;;;34.13;23.38;;;4.60;99.90;;;;;;1780744;79;21174;-76
2021/01/27 06:20:19;;;;;;;33.33;22.70;;;4.60;99.90;;;;;;1783234;79;21152;-77
2021/01/27 06:23:04;;;;;;;30.50;22.42;;;4.50;99.90;;;;;;1784666;79;21136;-76
2021/01/27 06:25:50;;;;;;;32.75;22.42;;;4.60;99.90;;;;;;1778274;79;21139;-76
2021/01/27 06:28:40;;;;;;;29.72;21.75;;;4.70;99.90;;;;;;1783290;79;21116;-75
2021/01/27 06:31:13;;;;;;;30.80;22.58;;;4.70;99.90;;;;;;1783093;79;21120;-74
2021/01/27 06:34:00;;;;;;;39.88;26.90;;;4.90;99.90;;;;;;1781251;79;21156;-74
2021/01/27 06:36:39;;;;;;;29.72;22.90;;;5.10;99.90;;;;;;1775456;77;21684;-76
2021/01/27 06:39:24;;;;;;;30.68;22.32;;;5.20;99.90;;;;;;1778955;79;21100;-75
2021/01/27 06:42:04;;;;;;;28.30;21.33;;;5.10;99.90;;;;;;1783173;79;21115;-75
2021/01/27 06:44:37;;;;;;;29.27;21.87;;;5.10;99.90;;;;;;1785864;77;21123;-74
2021/01/27 06:47:20;;;;;;;30.00;22.02;;;5.00;99.90;;;;;;1780533;79;21151;-75
2021/01/27 06:50:19;;;;;;;30.68;21.30;;;4.90;99.90;;;;;;1779708;79;22280;-76
2021/01/27 06:53:11;;;;;;;27.15;21.80;;;5.10;99.90;;;;;;1774682;79;21117;-75
2021/01/27 06:55:56;;;;;;;31.73;21.85;;;5.00;99.90;;;;;;1780039;77;21175;-75
2021/01/27 06:58:43;;;;;;;34.98;24.27;;;5.00;99.90;;;;;;1778151;79;21134;-76
2021/01/27 07:01:48;;;;;;;30.43;21.95;;;5.00;99.90;;;;;;1774578;79;21139;-75
2021/01/27 07:04:39;;;;;;;30.23;22.17;;;5.10;99.90;;;;;;1780560;79;21077;-76
2021/01/27 07:07:12;;;;;;;30.08;21.90;;;4.70;99.90;;;;;;1783481;77;21222;-79
2021/01/27 07:09:49;;;;;;;30.43;22.75;;;4.70;99.90;;;;;;1777455;79;21681;-74
2021/01/27 07:12:31;;;;;;;32.78;21.65;;;4.90;99.90;;;;;;1789413;79;21669;-75
2021/01/27 07:18:31;;;;;;;28.92;20.70;;;5.00;99.90;;;;;;1809324;78;21189;-75
2021/01/27 07:21:04;;;;;;;28.47;21.40;;;5.00;99.90;;;;;;1850133;76;21206;-75
2021/01/27 07:23:47;;;;;;;31.30;21.07;;;5.00;99.90;;;;;;1847195;76;21089;-75
2021/01/27 07:26:29;;;;;;;28.20;21.65;;;5.00;99.90;;;;;;1818646;77;21137;-74
2021/01/27 07:28:57;;;;;;;;;;;5.10;99.90;;;;;;1852574;76;21140;-77
2021/01/27 07:31:28;;;;;;;27.35;21.27;;;5.10;99.90;;;;;;1832560;76;20773;-76
2021/01/27 07:34:05;;;;;;;34.90;22.13;;;4.90;99.90;;;;;;1822340;77;21128;-76
2021/01/27 07:36:38;;;;;;;25.68;20.15;;;5.10;99.90;;;;;;1849273;76;21112;-76
2021/01/27 07:39:09;;;;;;;29.42;20.88;;;5.00;99.90;;;;;;1816089;77;21599;-76
2021/01/27 07:41:57;;;;;;;25.52;20.35;;;5.00;99.90;;;;;;1814461;77;21180;-75
2021/01/27 07:44:25;;;;;;;26.52;19.92;;;4.90;99.90;;;;;;1776261;78;21074;-77
2021/01/27 07:47:10;;;;;;;31.48;21.87;;;4.80;99.90;;;;;;1850077;76;21089;-76
2021/01/27 07:49:45;;;;;;;26.62;19.77;;;4.70;99.90;;;;;;1817566;77;21272;-73
2021/01/27 07:52:16;;;;;;;25.23;19.25;;;4.80;99.90;;;;;;1845106;76;21565;-76
2021/01/27 07:54:49;;;;;;;30.10;19.57;;;4.60;99.90;;;;;;1848966;76;21206;-76
2021/01/27 07:57:34;;;;;;;27.85;19.90;;;4.50;99.90;;;;;;1818177;77;21134;-75
2021/01/27 08:00:11;;;;;;;30.50;19.07;;;4.80;99.90;;;;;;1831370;76;21153;-75
2021/01/27 08:02:59;;;;;;;29.37;18.95;;;4.80;99.90;;;;;;1828155;77;21104;-75
2021/01/27 08:05:29;;;;;;;26.37;17.82;;;4.60;99.90;;;;;;1776626;77;21250;-75
2021/01/27 08:08:12;;;;;;;29.05;18.48;;;4.70;99.90;;;;;;1834461;77;21104;-75
2021/01/27 08:10:40;;;;;;;27.85;18.77;;;4.90;99.90;;;;;;1827108;76;21151;-76
2021/01/27 08:13:11;;;;;;;28.20;17.98;;;4.80;99.90;;;;;;1835361;77;21205;-75
2021/01/27 08:16:16;;;;;;;26.55;18.32;;;4.50;99.90;;;;;;1833147;76;21101;-75
2021/01/27 08:19:10;;;;;;;25.90;17.62;;;4.70;99.90;;;;;;1827988;76;21753;-77
2021/01/27 08:21:59;;;;;;;26.68;17.60;;;4.40;99.90;;;;;;1845672;76;21191;-76
2021/01/27 08:24:38;;;;;;;24.18;16.87;;;4.30;99.90;;;;;;1831629;76;21728;-77
2021/01/27 08:27:18;;;;;;;28.70;16.65;;;4.40;99.90;;;;;;1817145;78;21105;-76
2021/01/27 08:30:00;;;;;;;26.23;16.60;;;4.50;99.90;;;;;;1847982;76;21210;-77
2021/01/27 08:32:34;;;;;;;23.67;17.17;;;4.30;99.90;;;;;;1847874;77;22073;-77
2021/01/27 08:35:04;;;;;;;24.57;15.93;;;4.40;99.90;;;;;;1848358;77;21226;-77
2021/01/27 08:37:37;;;;;;;22.70;15.80;;;4.60;99.90;;;;;;1849582;76;21097;-77
2021/01/27 08:40:20;;;;;;;21.95;14.90;;;4.80;99.90;;;;;;1849180;76;21170;-77
2021/01/27 08:42:53;;;;;;;21.48;14.63;;;5.00;99.90;;;;;;1816433;77;21206;-76
2021/01/27 08:45:27;;;;;;;23.00;14.78;;;5.10;99.90;;;;;;1818343;77;21169;-75
2021/01/27 08:48:00;;;;;;;21.25;14.55;;;5.00;99.90;;;;;;1809493;78;21547;-75
2021/01/27 08:50:47;;;;;;;19.75;13.93;;;4.90;99.90;;;;;;1847534;76;22552;-77
2021/01/27 08:53:20;;;;;;;19.23;13.43;;;5.00;99.90;;;;;;1846731;76;21117;-75
2021/01/27 08:55:59;;;;;;;17.67;12.65;;;5.00;99.90;;;;;;1834536;76;21105;-75
2021/01/27 08:58:37;;;;;;;17.00;12.70;;;5.10;99.90;;;;;;1834754;76;21823;-76
2021/01/27 09:01:23;;;;;;;19.55;11.73;;;5.00;99.90;;;;;;1832829;77;21199;-75
2021/01/27 09:03:53;;;;;;;18.98;12.23;;;4.80;99.90;;;;;;1833002;76;21443;-74
2021/01/27 09:06:29;;;;;;;19.67;12.37;;;4.70;99.90;;;;;;1834206;76;21887;-73
2021/01/27 09:09:12;;;;;;;17.40;11.70;;;4.90;99.90;;;;;;1829554;76;21392;-74
2021/01/27 09:11:39;;;;;;;16.48;11.22;;;5.00;99.90;;;;;;1831518;77;21094;-74
2021/01/27 09:14:13;;;;;;;15.88;11.33;;;5.00;99.90;;;;;;1834418;77;21109;-74
2021/01/27 09:16:43;;;;;;;17.37;11.22;;;5.30;99.90;;;;;;1835075;76;21122;-75
2021/01/27 09:19:17;;;;;;;14.53;10.43;;;5.40;99.90;;;;;;1830926;76;21086;-76
2021/01/27 09:21:47;;;;;;;16.30;10.50;;;5.20;99.90;;;;;;1833946;76;21149;-78
2021/01/27 09:24:36;;;;;;;16.62;11.08;;;5.20;99.90;;;;;;1829950;76;21137;-78
2021/01/27 09:27:23;;;;;;;15.93;11.08;;;5.10;99.90;;;;;;1830668;76;21613;-77
2021/01/27 09:29:59;;;;;;;16.10;10.10;;;5.20;99.90;;;;;;1832451;76;21116;-77
2021/01/27 09:32:28;;;;;;;15.72;10.65;;;5.30;99.90;;;;;;1832025;76;21122;-77
2021/01/27 09:34:57;;;;;;;15.58;9.95;;;5.40;99.90;;;;;;1834673;76;21081;-77
2021/01/27 09:37:28;;;;;;;12.23;9.68;;;5.30;99.90;;;;;;1851527;76;21111;-77
2021/01/27 09:40:15;;;;;;;12.35;9.05;;;5.50;99.90;;;;;;1815267;78;21562;-75
2021/01/27 09:42:43;;;;;;;12.63;8.78;;;5.50;99.90;;;;;;1840326;76;21178;-74
2021/01/27 09:45:13;;;;;;;15.32;8.73;;;5.50;99.90;;;;;;1849743;76;21613;-73
2021/01/27 09:47:43;;;;;;;15.30;8.80;;;5.40;99.90;;;;;;1850229;76;21118;-74
2021/01/27 09:50:12;;;;;;;12.70;9.10;;;5.50;99.90;;;;;;1838143;77;21123;-72
2021/01/27 09:52:42;;;;;;;13.88;8.85;;;5.60;99.90;;;;;;1837786;77;21082;-74
2021/01/27 09:55:13;;;;;;;10.75;7.92;;;5.70;99.90;;;;;;1833785;77;21157;-75
2021/01/27 09:57:43;;;;;;;12.33;8.18;;;5.90;99.90;;;;;;1834271;77;21057;-75
2021/01/27 10:00:14;;;;;;;12.60;8.38;;;5.70;99.90;;;;;;1833321;77;21141;-75
2021/01/27 10:02:41;;;;;;;10.68;7.40;;;5.80;99.90;;;;;;1828958;77;21528;-75
2021/01/27 10:05:14;;;;;;;11.95;7.75;;;5.90;99.90;;;;;;1839066;77;21055;-75
2021/01/27 10:07:43;;;;;;;11.10;7.55;;;5.80;99.90;;;;;;1815715;77;21159;-76
2021/01/27 10:10:17;;;;;;;9.95;7.33;;;6.00;99.90;;;;;;1835527;77;21220;-75
2021/01/27 10:12:45;;;;;;;11.55;7.80;;;5.80;99.90;;;;;;1835548;77;22440;-75
2021/01/27 10:15:34;;;;;;;12.18;7.55;;;5.70;99.90;;;;;;1834859;77;21199;-75
2021/01/27 10:18:13;;;;;;;10.95;7.53;;;5.60;99.90;;;;;;1835503;77;21203;-76
2021/01/27 10:20:42;;;;;;;12.55;8.13;;;5.60;99.90;;;;;;1821846;77;21198;-76
2021/01/27 10:23:14;;;;;;;10.10;7.65;;;5.10;99.90;;;;;;1850030;76;21135;-76
2021/01/27 10:25:47;;;;;;;9.80;7.12;;;4.80;99.90;;;;;;1855329;76;21084;-75
2021/01/27 10:28:25;;;;;;;11.68;8.03;;;4.90;99.90;;;;;;1850485;76;21152;-76
2021/01/27 10:31:01;;;;;;;12.05;8.03;;;5.20;99.90;;;;;;1851607;76;21108;-78
2021/01/27 10:33:51;;;;;;;11.15;7.47;;;5.40;99.90;;;;;;1845890;76;21159;-77
2021/01/27 10:36:41;;;;;;;11.83;8.33;;;5.50;99.90;;;;;;1836679;76;21078;-77
2021/01/27 10:39:26;;;;;;;11.40;7.80;;;5.10;99.90;;;;;;1853059;76;21772;-77
2021/01/27 10:42:11;;;;;;;12.03;8.08;;;4.80;99.90;;;;;;1817753;77;21136;-78
2021/01/27 10:44:41;;;;;;;11.95;8.70;;;4.60;99.90;;;;;;1849987;76;21101;-77
2021/01/27 10:47:15;;;;;;;12.05;8.83;;;4.40;99.90;;;;;;1818014;77;21529;-77
2021/01/27 10:49:45;;;;;;;14.95;9.38;;;4.40;99.90;;;;;;1850451;76;21136;-78
2021/01/27 10:52:28;;;;;;;13.48;8.43;;;4.60;99.90;;;;;;1854301;76;21085;-77
2021/01/27 10:54:59;;;;;;;11.10;8.53;;;4.80;99.90;;;;;;1805717;78;21181;-78
2021/01/27 10:57:27;;;;;;;11.73;8.95;;;4.90;99.90;;;;;;1850274;76;21054;-80
2021/01/27 10:59:56;;;;;;;12.93;9.03;;;4.90;99.90;;;;;;1835247;76;21165;-76
2021/01/27 11:02:23;;;;;;;13.70;9.30;;;5.00;99.90;;;;;;1836175;76;21130;-77
2021/01/27 11:04:51;;;;;;;10.23;8.73;;;5.10;99.90;;;;;;1854169;76;21523;-78
2021/01/27 11:07:18;;;;;;;11.53;8.95;;;4.90;99.90;;;;;;1854690;76;21089;-78
2021/01/27 11:09:48;;;;;;;11.03;7.85;;;5.10;99.90;;;;;;1855340;76;21104;-77
2021/01/27 11:12:16;;;;;;;12.70;8.83;;;5.20;99.90;;;;;;1818745;77;21195;-76
2021/01/27 11:14:44;;;;;;;13.50;9.15;;;5.10;99.90;;;;;;1851200;76;21097;-77
2021/01/27 11:17:11;;;;;;;12.10;9.08;;;5.00;99.90;;;;;;1854344;76;21156;-77
2021/01/27 11:19:38;;;;;;;13.38;8.35;;;4.70;99.90;;;;;;1847157;76;21109;-77
2021/01/27 11:22:06;;;;;;;11.10;8.78;;;4.70;99.90;;;;;;1849477;76;21627;-77
2021/01/27 11:24:34;;;;;;;13.93;9.25;;;4.90;99.90;;;;;;1850744;76;21179;-77
2021/01/27 11:27:01;;;;;;;12.37;9.38;;;5.10;99.90;;;;;;1855055;76;21151;-76
2021/01/27 11:29:28;;;;;;;12.60;9.30;;;4.90;99.90;;;;;;1805745;78;21135;-76
2021/01/27 11:31:56;;;;;;;11.33;9.03;;;4.80;99.90;;;;;;1846529;76;21191;-78
2021/01/27 11:34:23;;;;;;;11.93;8.60;;;4.60;99.90;;;;;;1849296;76;21089;-77
2021/01/27 11:36:51;;;;;;;12.45;8.60;;;4.60;99.90;;;;;;1849370;76;21202;-77
2021/01/27 11:39:18;;;;;;;14.15;8.93;;;4.60;99.90;;;;;;1809922;78;21120;-78
2021/01/27 11:41:46;;;;;;;12.15;9.55;;;4.40;99.90;;;;;;1851464;76;21113;-78
2021/01/27 11:44:13;;;;;;;10.58;8.85;;;4.50;99.90;;;;;;1851196;76;21550;-77
2021/01/27 11:46:43;;;;;;;11.53;9.10;;;4.60;99.90;;;;;;1858705;76;21139;-76
2021/01/27 11:49:10;;;;;;;10.85;8.50;;;4.60;99.90;;;;;;1848344;77;21085;-78
2021/01/27 11:51:38;;;;;;;10.38;8.20;;;4.70;99.90;;;;;;1822839;77;21228;-77
2021/01/27 11:54:05;;;;;;;10.63;8.33;;;4.80;99.90;;;;;;1849902;76;21220;-77
2021/01/27 11:56:33;;;;;;;12.18;8.13;;;4.80;99.90;;;;;;1867572;71;21151;-78
2021/01/27 11:59:01;;;;;;;11.73;8.88;;;4.80;99.90;;;;;;1879426;75;21212;-81
2021/01/27 12:01:35;;;;;;;13.15;8.63;;;4.70;99.90;;;;;;1883474;74;21087;-80
2021/01/27 12:03:59;;;;;;;;;;;4.70;99.90;;;;;;1887817;74;21103;-81
2021/01/27 12:06:27;;;;;;;9.13;7.80;;;4.80;99.90;;;;;;1896251;74;20135;-81
2021/01/27 12:08:54;;;;;;;11.22;8.55;;;4.70;99.90;;;;;;1926750;73;21072;-79
2021/01/27 12:11:22;;;;;;;9.75;8.30;;;4.70;99.90;;;;;;1922664;74;21150;-79
2021/01/27 12:13:50;;;;;;;11.00;8.40;;;4.80;99.90;;;;;;1917418;74;21146;-80
2021/01/27 12:16:18;;;;;;;10.70;8.20;;;4.90;99.90;;;;;;1918051;72;21108;-80
2021/01/27 12:18:45;;;;;;;10.35;8.23;;;5.00;99.90;;;;;;1919211;74;21017;-80
2021/01/27 12:21:13;;;;;;;12.18;8.75;;;5.10;99.90;;;;;;1918694;73;21099;-80
2021/01/27 12:23:40;;;;;;;11.53;8.08;;;4.90;99.90;;;;;;1922436;73;21123;-80
2021/01/27 12:26:08;;;;;;;9.55;8.13;;;4.90;99.90;;;;;;1922251;74;22171;-79
2021/01/27 12:28:37;;;;;;;9.35;7.92;;;4.80;99.90;;;;;;1922519;74;21130;-80
2021/01/27 12:31:05;;;;;;;9.15;8.05;;;4.70;99.90;;;;;;1920744;74;21084;-81
2021/01/27 12:33:32;;;;;;;10.15;7.72;;;4.80;99.90;;;;;;1924335;74;21395;-80
2021/01/27 12:36:01;;;;;;;9.70;7.83;;;4.70;99.90;;;;;;1915495;74;21143;-81
2021/01/27 12:38:28;;;;;;;9.70;7.78;;;4.80;99.90;;;;;;1920970;73;21589;-82
2021/01/27 12:40:57;;;;;;;11.80;8.10;;;4.90;99.90;;;;;;1921858;74;21188;-81
2021/01/27 12:43:25;;;;;;;11.38;8.23;;;5.00;99.90;;;;;;1919672;74;21096;-81
2021/01/27 12:45:52;;;;;;;9.83;8.18;;;5.00;99.90;;;;;;1919109;73;21111;-82
2021/01/27 12:48:20;;;;;;;9.63;8.23;;;4.90;99.90;;;;;;1922675;74;21089;-81
2021/01/27 12:50:47;;;;;;;10.20;7.87;;;5.10;99.90;;;;;;1918887;73;21591;-81
2021/01/27 12:53:15;;;;;;;10.28;7.83;;;5.20;99.90;;;;;;1920551;74;21775;-80
2021/01/27 12:55:42;;;;;;;10.65;8.45;;;5.20;99.90;;;;;;1922035;72;21079;-83
2021/01/27 12:58:10;;;;;;;10.63;8.35;;;5.40;99.90;;;;;;1919599;73;21111;-82
2021/01/27 13:00:37;;;;;;;10.20;8.10;;;5.40;99.90;;;;;;1922425;72;21118;-82
2021/01/27 13:03:05;;;;;;;10.75;8.55;;;5.10;99.90;;;;;;1916313;72;21107;-82
2021/01/27 13:05:33;;;;;;;9.40;8.40;;;5.10;99.90;;;;;;1920079;72;21123;-83
2021/01/27 13:08:00;;;;;;;10.45;8.73;;;4.90;99.90;;;;;;1919393;72;21064;-83
2021/01/27 13:10:28;;;;;;;12.28;8.73;;;5.00;99.90;;;;;;1919565;73;21092;-83
2021/01/27 13:12:55;;;;;;;12.07;8.80;;;5.10;99.90;;;;;;1917323;73;21095;-82
2021/01/27 13:15:23;;;;;;;9.28;8.30;;;5.20;99.90;;;;;;1921403;72;21726;-81